createdAt,value
2022-09-14T00:00:43.992Z,13.00
2022-09-14T00:03:10.643Z,12.37
2022-09-14T00:05:37.590Z,13.20
2022-09-14T00:08:04.273Z,11.30
2022-09-14T00:10:31.119Z,11.27
2022-09-14T00:12:58.199Z,11.77
2022-09-14T00:15:24.762Z,12.83
2022-09-14T00:17:51.271Z,11.47
2022-09-14T00:20:17.977Z,11.17
2022-09-14T00:22:44.576Z,12.03
2022-09-14T00:25:11.331Z,13.57
2022-09-14T00:27:37.903Z,12.17
2022-09-14T00:30:05.747Z,11.80
2022-09-14T00:32:32.398Z,12.30
2022-09-14T00:34:59.025Z,9.90
2022-09-14T00:37:25.605Z,9.73
2022-09-14T00:39:52.312Z,9.20
2022-09-14T00:42:19.587Z,8.90
2022-09-14T00:44:46.137Z,8.50
2022-09-14T00:47:13.739Z,8.90
2022-09-14T00:49:41.274Z,9.07
2022-09-14T00:52:10.404Z,9.40
2022-09-14T00:54:39.211Z,9.07
2022-09-14T00:57:05.757Z,9.00
2022-09-14T00:59:34.912Z,9.70
2022-09-14T01:02:01.712Z,10.60
2022-09-14T01:04:28.542Z,11.20
2022-09-14T01:07:04.435Z,10.53
2022-09-14T01:09:33.750Z,10.10
2022-09-14T01:12:06.360Z,10.67
2022-09-14T01:14:42.394Z,10.30
2022-09-14T01:17:09.023Z,10.93
2022-09-14T01:19:54.361Z,12.43
2022-09-14T01:22:29.950Z,10.30
2022-09-14T01:25:03.848Z,10.07
2022-09-14T01:27:41.791Z,10.63
2022-09-14T01:30:12.581Z,10.83
2022-09-14T01:32:50.923Z,9.20
2022-09-14T01:35:33.913Z,8.00
2022-09-14T01:38:17.412Z,9.07
2022-09-14T01:40:46.053Z,8.97
2022-09-14T01:43:35.051Z,9.07
2022-09-14T01:46:08.969Z,8.50
2022-09-14T01:48:55.848Z,8.00
2022-09-14T01:51:31.338Z,8.50
2022-09-14T01:54:01.337Z,7.43
2022-09-14T01:56:33.863Z,8.93
2022-09-14T01:59:05.901Z,9.57
2022-09-14T02:01:37.871Z,10.03
2022-09-14T02:04:07.109Z,9.53
2022-09-14T02:06:33.973Z,8.80
2022-09-14T02:09:00.582Z,10.53
2022-09-14T02:11:28.523Z,10.73
2022-09-14T02:13:55.112Z,11.57
2022-09-14T02:16:22.535Z,10.53
2022-09-14T02:18:49.472Z,12.27
2022-09-14T02:21:17.776Z,12.20
2022-09-14T02:23:44.660Z,13.60
2022-09-14T02:26:11.327Z,13.00
2022-09-14T02:28:38.158Z,12.90
2022-09-14T02:31:19.982Z,13.70
2022-09-14T02:34:05.371Z,11.13
2022-09-14T02:36:47.578Z,14.30
2022-09-14T02:39:17.343Z,14.17
2022-09-14T02:42:04.287Z,13.20
2022-09-14T02:44:35.755Z,14.23
2022-09-14T02:47:12.806Z,14.87
2022-09-14T02:49:44.650Z,13.90
2022-09-14T02:52:11.298Z,14.53
2022-09-14T02:54:43.261Z,17.43
2022-09-14T02:57:09.995Z,15.73
2022-09-14T02:59:36.797Z,13.80
2022-09-14T03:02:03.903Z,14.30
2022-09-14T03:04:31.793Z,14.77
2022-09-14T03:06:58.634Z,15.00
2022-09-14T03:09:25.286Z,16.77
2022-09-14T03:11:51.879Z,16.70
2022-09-14T03:14:18.474Z,14.50
2022-09-14T03:16:45.126Z,15.87
2022-09-14T03:19:12.318Z,16.30
2022-09-14T03:21:39.308Z,16.77
2022-09-14T03:24:07.571Z,15.43
2022-09-14T03:26:36.819Z,15.50
2022-09-14T03:29:03.931Z,16.03
2022-09-14T03:31:31.496Z,15.10
2022-09-14T03:33:58.978Z,16.90
2022-09-14T03:36:26.930Z,16.67
2022-09-14T03:38:54.546Z,15.97
2022-09-14T03:41:21.750Z,17.87
2022-09-14T03:43:48.690Z,17.63
2022-09-14T03:46:16.666Z,17.43
2022-09-14T03:48:44.125Z,19.77
2022-09-14T03:51:12.331Z,17.00
2022-09-14T03:53:39.084Z,17.80
2022-09-14T03:56:10.758Z,17.77
2022-09-14T03:58:37.758Z,17.93
2022-09-14T04:01:08.110Z,19.40
2022-09-14T04:03:34.736Z,19.27
2022-09-14T04:06:05.226Z,18.80
2022-09-14T04:08:33.541Z,21.27
2022-09-14T04:11:00.366Z,19.77
2022-09-14T04:13:27.110Z,21.40
2022-09-14T04:15:57.932Z,20.90
2022-09-14T04:18:25.635Z,21.17
2022-09-14T04:20:58.706Z,20.93
2022-09-14T04:23:25.576Z,20.57
2022-09-14T04:25:52.573Z,21.63
2022-09-14T04:28:20.569Z,20.83
2022-09-14T04:30:58.422Z,21.20
2022-09-14T04:33:25.385Z,23.37
2022-09-14T04:35:58.274Z,23.33
2022-09-14T04:38:25.042Z,23.07
2022-09-14T04:40:51.876Z,25.13
2022-09-14T04:43:18.443Z,26.73
2022-09-14T04:45:45.672Z,27.97
2022-09-14T04:48:12.239Z,28.60
2022-09-14T04:50:38.856Z,30.57
2022-09-14T04:53:05.382Z,31.60
2022-09-14T04:55:31.963Z,30.00
2022-09-14T04:57:58.499Z,33.90
2022-09-14T05:00:25.203Z,36.67
2022-09-14T05:02:51.823Z,37.33
2022-09-14T05:05:18.509Z,39.10
2022-09-14T05:07:45.046Z,39.50
2022-09-14T05:10:12.118Z,38.20
2022-09-14T05:12:38.861Z,39.40
2022-09-14T05:15:06.112Z,38.67
2022-09-14T05:17:35.814Z,40.50
2022-09-14T05:20:02.473Z,40.73
2022-09-14T05:22:29.179Z,40.80
2022-09-14T05:24:55.804Z,43.10
2022-09-14T05:27:22.463Z,41.63
2022-09-14T05:29:49.087Z,37.80
2022-09-14T05:32:15.735Z,36.37
2022-09-14T05:34:42.371Z,31.83
2022-09-14T05:37:11.124Z,33.67
2022-09-14T05:39:37.872Z,33.40
2022-09-14T05:42:04.946Z,34.07
2022-09-14T05:44:31.685Z,33.03
2022-09-14T05:47:00.541Z,33.73
2022-09-14T05:49:27.559Z,31.57
2022-09-14T05:51:54.419Z,31.30
2022-09-14T05:54:21.236Z,29.97
2022-09-14T05:56:50.397Z,27.43
2022-09-14T05:59:17.699Z,29.33
2022-09-14T06:01:44.595Z,27.47
2022-09-14T06:04:11.781Z,28.00
2022-09-14T06:06:38.718Z,28.07
2022-09-14T06:09:13.177Z,27.40
2022-09-14T06:11:43.212Z,24.60
2022-09-14T06:14:10.282Z,26.23
2022-09-14T06:16:37.312Z,26.60
2022-09-14T06:19:04.296Z,26.10
2022-09-14T06:21:33.193Z,27.10
2022-09-14T06:24:00.478Z,28.63
2022-09-14T06:26:27.739Z,29.17
2022-09-14T06:28:54.786Z,28.07
2022-09-14T06:31:25.706Z,28.43
2022-09-14T06:33:56.880Z,27.07
2022-09-14T06:36:25.226Z,28.80
2022-09-14T06:38:52.476Z,28.90
2022-09-14T06:41:20.748Z,26.30
2022-09-14T06:43:48.034Z,30.30
2022-09-14T06:46:21.678Z,27.37
2022-09-14T06:48:51.198Z,27.67
2022-09-14T06:51:25.911Z,28.87
2022-09-14T06:53:54.140Z,26.60
2022-09-14T06:56:21.448Z,28.20
2022-09-14T06:58:48.255Z,25.20
2022-09-14T07:01:19.809Z,21.93
2022-09-14T07:03:47.408Z,24.80
2022-09-14T07:06:18.077Z,21.03
2022-09-14T07:08:45.341Z,23.40
2022-09-14T07:11:16.702Z,20.87
2022-09-14T07:13:43.593Z,19.47
2022-09-14T07:16:11.610Z,16.90
2022-09-14T07:18:38.697Z,16.77
2022-09-14T07:21:07.612Z,16.90
2022-09-14T07:23:36.372Z,18.23
2022-09-14T07:26:05.455Z,13.37
2022-09-14T07:28:33.155Z,13.77
2022-09-14T07:31:00.648Z,15.17
2022-09-14T07:33:27.745Z,12.80
2022-09-14T07:35:54.700Z,12.47
2022-09-14T07:38:35.829Z,12.90
2022-09-14T07:41:08.173Z,12.83
2022-09-14T07:43:35.016Z,11.93
2022-09-14T07:46:03.938Z,9.77
2022-09-14T07:48:35.049Z,9.57
2022-09-14T07:51:10.366Z,10.40
2022-09-14T07:53:42.703Z,10.17
2022-09-14T07:56:09.950Z,10.87
2022-09-14T07:58:36.919Z,9.50
2022-09-14T08:01:05.488Z,10.00
2022-09-14T08:03:35.715Z,11.00
2022-09-14T08:06:03.216Z,10.87
2022-09-14T08:08:30.801Z,10.30
2022-09-14T08:11:05.740Z,10.80
2022-09-14T08:13:33.974Z,8.43
2022-09-14T08:16:01.001Z,8.20
2022-09-14T08:18:30.709Z,9.10
2022-09-14T08:20:57.298Z,10.47
2022-09-14T08:23:24.132Z,9.20
2022-09-14T08:25:50.948Z,9.10
2022-09-14T08:28:17.815Z,10.30
2022-09-14T08:30:44.704Z,12.37
2022-09-14T08:33:11.382Z,11.17
2022-09-14T08:35:57.468Z,9.70
2022-09-14T08:38:25.426Z,9.67
2022-09-14T08:40:52.555Z,11.90
2022-09-14T08:43:21.555Z,11.10
2022-09-14T08:45:48.885Z,11.13
2022-09-14T08:48:31.352Z,11.37
2022-09-14T08:50:57.931Z,12.00
2022-09-14T08:53:25.212Z,13.07
2022-09-14T08:55:56.070Z,11.40
2022-09-14T08:58:22.593Z,11.57
2022-09-14T09:01:09.469Z,12.53
2022-09-14T09:03:54.796Z,13.10
2022-09-14T09:06:24.360Z,14.10
2022-09-14T09:09:09.709Z,12.27
2022-09-14T09:11:48.222Z,15.13
2022-09-14T09:14:35.137Z,16.60
2022-09-14T09:17:04.368Z,15.00
2022-09-14T09:19:34.211Z,14.40
2022-09-14T09:22:03.830Z,15.77
2022-09-14T09:24:36.906Z,13.93
2022-09-14T09:27:13.990Z,14.03
2022-09-14T09:29:40.623Z,15.33
2022-09-14T09:32:15.250Z,15.20
2022-09-14T09:35:06.534Z,15.70
2022-09-14T09:37:46.055Z,15.30
2022-09-14T09:40:17.644Z,13.73
2022-09-14T09:43:03.760Z,15.40
2022-09-14T09:45:48.807Z,14.80
2022-09-14T09:48:17.671Z,14.60
2022-09-14T09:51:05.177Z,15.67
2022-09-14T09:53:33.565Z,15.47
2022-09-14T09:56:01.154Z,15.07
2022-09-14T09:58:38.626Z,14.73
2022-09-14T10:01:19.514Z,14.30
2022-09-14T10:04:00.791Z,17.50
2022-09-14T10:06:27.816Z,17.50
2022-09-14T10:08:55.151Z,16.30
2022-09-14T10:11:36.880Z,15.20
2022-09-14T10:14:04.947Z,13.07
2022-09-14T10:16:42.073Z,10.87
2022-09-14T10:19:16.270Z,13.10
2022-09-14T10:22:04.536Z,12.40
2022-09-14T10:24:33.100Z,13.80
2022-09-14T10:27:00.220Z,12.50
2022-09-14T10:29:30.583Z,11.77
2022-09-14T10:32:01.104Z,11.73
2022-09-14T10:34:28.362Z,11.47
2022-09-14T10:37:04.653Z,11.77
2022-09-14T10:39:37.040Z,10.70
2022-09-14T10:42:07.003Z,10.77
2022-09-14T10:44:40.021Z,10.47
2022-09-14T10:47:09.924Z,10.13
2022-09-14T10:49:41.057Z,10.20
2022-09-14T10:52:15.741Z,11.40
2022-09-14T10:54:42.510Z,10.90
2022-09-14T10:57:28.350Z,10.93
2022-09-14T10:59:56.409Z,10.97
2022-09-14T11:02:32.754Z,11.80
2022-09-14T11:05:10.912Z,11.43
2022-09-14T11:07:43.922Z,11.17
2022-09-14T11:10:21.659Z,10.10
2022-09-14T11:13:03.885Z,10.53
2022-09-14T11:15:36.831Z,10.20
2022-09-14T11:18:06.556Z,11.80
2022-09-14T11:21:05.940Z,11.00
2022-09-14T11:24:09.591Z,10.57
2022-09-14T11:26:50.743Z,11.60
2022-09-14T11:29:17.445Z,9.87
2022-09-14T11:31:59.010Z,10.20
2022-09-14T11:34:55.059Z,9.90
2022-09-14T11:37:26.931Z,9.90
2022-09-14T11:40:00.028Z,10.00
2022-09-14T11:42:30.995Z,8.70
2022-09-14T11:45:20.186Z,8.33
2022-09-14T11:47:52.449Z,11.40
2022-09-14T11:50:21.447Z,6.53
2022-09-14T11:52:50.314Z,4.13
2022-09-14T11:55:18.148Z,4.13
2022-09-14T11:57:45.856Z,4.10
2022-09-14T12:00:24.839Z,3.90
2022-09-14T12:03:14.660Z,3.93
2022-09-14T12:05:44.546Z,5.40
2022-09-14T12:08:23.361Z,4.60
2022-09-14T12:11:00.147Z,4.00
2022-09-14T12:13:26.909Z,4.60
2022-09-14T12:16:07.275Z,4.90
2022-09-14T12:18:38.345Z,4.37
2022-09-14T12:21:20.390Z,4.30
2022-09-14T12:23:51.767Z,3.00
2022-09-14T12:26:18.507Z,3.23
2022-09-14T12:28:50.390Z,3.30
2022-09-14T12:31:32.755Z,3.20
2022-09-14T12:34:08.649Z,2.60
2022-09-14T12:36:38.271Z,2.50
2022-09-14T12:39:06.938Z,2.40
2022-09-14T12:41:36.471Z,2.70
2022-09-14T12:44:04.605Z,2.67
2022-09-14T12:46:33.042Z,5.30
2022-09-14T12:49:02.669Z,3.70
2022-09-14T12:51:29.389Z,5.07
2022-09-14T12:53:59.284Z,5.57
2022-09-14T12:56:29.067Z,7.10
2022-09-14T12:59:01.273Z,10.10
2022-09-14T13:01:50.780Z,8.23
2022-09-14T13:04:25.596Z,9.40
2022-09-14T13:06:52.932Z,9.10
2022-09-14T13:09:24.192Z,9.40
2022-09-14T13:11:58.472Z,9.40
2022-09-14T13:14:27.410Z,10.20
2022-09-14T13:16:54.172Z,10.73
2022-09-14T13:19:28.284Z,14.10
2022-09-14T13:21:56.403Z,14.50
2022-09-14T13:24:25.740Z,14.80
2022-09-14T13:26:53.774Z,13.10
2022-09-14T13:29:20.696Z,15.07
2022-09-14T13:31:47.549Z,13.87
2022-09-14T13:34:24.925Z,11.10
2022-09-14T13:36:52.089Z,10.80
2022-09-14T13:39:18.759Z,10.00
2022-09-14T13:41:45.813Z,8.03
2022-09-14T13:44:12.574Z,9.50
2022-09-14T13:46:39.510Z,7.90
2022-09-14T13:49:07.074Z,9.40
2022-09-14T13:51:35.473Z,3.40
2022-09-14T13:54:28.803Z,2.60
2022-09-14T13:57:13.444Z,2.57
2022-09-14T14:00:01.509Z,2.67
2022-09-14T14:02:33.537Z,2.00
2022-09-14T14:05:00.399Z,3.57
2022-09-14T14:07:31.163Z,2.07
2022-09-14T14:09:58.359Z,2.77
2022-09-14T14:12:42.020Z,2.83
2022-09-14T14:15:12.192Z,2.70
2022-09-14T14:17:39.817Z,2.07
2022-09-14T14:20:25.462Z,3.27
2022-09-14T14:22:58.209Z,2.33
2022-09-14T14:25:28.761Z,3.27
2022-09-14T14:27:59.257Z,4.80
2022-09-14T14:30:28.357Z,4.77
2022-09-14T14:32:56.030Z,5.93
2022-09-14T14:35:24.579Z,5.57
2022-09-14T14:37:51.449Z,5.77
2022-09-14T14:40:18.892Z,6.30
2022-09-14T14:42:45.986Z,6.30
2022-09-14T14:45:14.347Z,7.10
2022-09-14T14:47:41.111Z,6.57
2022-09-14T14:50:15.380Z,7.10
2022-09-14T14:52:41.997Z,7.93
2022-09-14T14:55:09.098Z,7.47
2022-09-14T14:57:37.357Z,7.33
2022-09-14T15:00:04.755Z,5.70
2022-09-14T15:02:31.385Z,6.53
2022-09-14T15:04:58.114Z,6.33
2022-09-14T15:07:35.939Z,6.37
2022-09-14T15:10:13.843Z,5.13
2022-09-14T15:12:40.638Z,4.80
2022-09-14T15:15:11.488Z,6.50
2022-09-14T15:17:38.286Z,5.40
2022-09-14T15:20:07.954Z,6.30
2022-09-14T15:22:36.269Z,7.13
2022-09-14T15:25:04.199Z,7.40
2022-09-14T15:27:31.267Z,7.07
2022-09-14T15:29:57.895Z,6.00
2022-09-14T15:32:24.490Z,6.97
2022-09-14T15:34:52.906Z,6.80
2022-09-14T15:37:19.605Z,8.30
2022-09-14T15:39:50.119Z,8.50
2022-09-14T15:42:20.329Z,5.60
2022-09-14T15:44:47.034Z,7.17
2022-09-14T15:47:17.129Z,5.87
2022-09-14T15:49:43.892Z,5.00
2022-09-14T15:52:11.732Z,5.93
2022-09-14T15:54:38.932Z,5.23
2022-09-14T15:57:08.577Z,5.53
2022-09-14T15:59:37.903Z,6.50
2022-09-14T16:02:04.765Z,5.83
2022-09-14T16:04:36.209Z,7.87
2022-09-14T16:07:05.335Z,6.60
2022-09-14T16:09:34.082Z,6.17
2022-09-14T16:12:03.326Z,6.77
2022-09-14T16:14:29.935Z,7.10
2022-09-14T16:16:56.709Z,6.17
2022-09-14T16:19:23.449Z,5.10
2022-09-14T16:21:53.587Z,4.93
2022-09-14T16:24:21.045Z,5.70
2022-09-14T16:26:47.897Z,5.00
2022-09-14T16:29:15.241Z,5.87
2022-09-14T16:31:43.030Z,6.50
2022-09-14T16:34:29.008Z,6.33
2022-09-14T16:36:56.679Z,7.37
2022-09-14T16:39:25.184Z,7.03
2022-09-14T16:41:52.619Z,5.60
2022-09-14T16:44:20.343Z,5.40
2022-09-14T16:46:48.819Z,6.20
2022-09-14T16:49:16.077Z,5.90
2022-09-14T16:51:42.786Z,5.60
2022-09-14T16:54:10.715Z,6.47
2022-09-14T16:56:38.218Z,5.17
2022-09-14T16:59:05.524Z,6.07
2022-09-14T17:01:33.833Z,7.07
2022-09-14T17:04:07.211Z,6.70
2022-09-14T17:06:34.753Z,6.13
2022-09-14T17:09:03.593Z,6.67
2022-09-14T17:11:31.390Z,6.80
2022-09-14T17:13:58.339Z,6.73
2022-09-14T17:16:26.073Z,8.00
2022-09-14T17:18:57.217Z,8.77
2022-09-14T17:21:25.834Z,6.50
2022-09-14T17:23:52.669Z,8.83
2022-09-14T17:26:20.801Z,8.60
2022-09-14T17:28:49.593Z,8.03
2022-09-14T17:31:20.813Z,8.07
2022-09-14T17:33:47.455Z,7.10
2022-09-14T17:36:14.683Z,7.30
2022-09-14T17:38:42.306Z,8.43
2022-09-14T17:41:10.584Z,8.03
2022-09-14T17:43:38.116Z,9.07
2022-09-14T17:46:07.951Z,9.00
2022-09-14T17:48:37.879Z,8.70
2022-09-14T17:51:06.294Z,10.50
2022-09-14T17:53:39.974Z,10.97
2022-09-14T17:56:07.784Z,10.83
2022-09-14T17:58:35.152Z,9.70
2022-09-14T18:01:06.996Z,9.77
2022-09-14T18:03:34.292Z,9.27
2022-09-14T18:06:01.393Z,12.20
2022-09-14T18:08:28.235Z,11.03
2022-09-14T18:10:55.201Z,12.63
2022-09-14T18:13:22.082Z,12.63
2022-09-14T18:15:54.437Z,13.23
2022-09-14T18:18:21.140Z,14.20
2022-09-14T18:20:49.001Z,11.67
2022-09-14T18:23:16.292Z,14.40
2022-09-14T18:25:43.377Z,16.47
2022-09-14T18:28:09.966Z,15.10
2022-09-14T18:30:41.630Z,16.33
2022-09-14T18:33:10.498Z,16.63
2022-09-14T18:35:40.356Z,21.10
2022-09-14T18:38:07.312Z,19.33
2022-09-14T18:40:34.728Z,24.73
2022-09-14T18:43:03.067Z,22.53
2022-09-14T18:45:30.493Z,23.50
2022-09-14T18:47:57.399Z,25.30
2022-09-14T18:50:25.114Z,22.60
2022-09-14T18:52:52.037Z,24.97
2022-09-14T18:55:19.258Z,26.50
2022-09-14T18:57:47.335Z,24.50
2022-09-14T19:00:18.297Z,26.80
2022-09-14T19:02:50.634Z,26.57
2022-09-14T19:05:17.411Z,25.83
2022-09-14T19:07:44.414Z,27.60
2022-09-14T19:10:11.789Z,27.47
2022-09-14T19:12:38.893Z,26.60
2022-09-14T19:15:05.726Z,26.47
2022-09-14T19:17:32.539Z,28.00
2022-09-14T19:19:59.900Z,27.43
2022-09-14T19:22:28.270Z,28.80
2022-09-14T19:24:54.915Z,29.87
2022-09-14T19:27:22.604Z,28.90
2022-09-14T19:29:49.412Z,31.87
2022-09-14T19:32:16.123Z,29.90
2022-09-14T19:34:42.815Z,33.53
2022-09-14T19:37:10.601Z,31.73
2022-09-14T19:39:37.412Z,34.20
2022-09-14T19:42:04.255Z,35.60
2022-09-14T19:44:30.936Z,35.57
2022-09-14T19:46:57.633Z,37.10
2022-09-14T19:49:25.166Z,37.03
2022-09-14T19:51:53.607Z,37.40
2022-09-14T19:54:20.358Z,35.23
2022-09-14T19:56:47.069Z,37.97
2022-09-14T19:59:14.146Z,38.67
2022-09-14T20:01:40.833Z,39.37
2022-09-14T20:04:07.835Z,40.67
2022-09-14T20:06:40.143Z,40.60
2022-09-14T20:09:08.071Z,39.67
2022-09-14T20:11:35.335Z,43.63
2022-09-14T20:14:03.883Z,41.83
2022-09-14T20:16:32.333Z,41.20
2022-09-14T20:18:59.868Z,42.70
2022-09-14T20:21:27.062Z,40.57
2022-09-14T20:24:15.119Z,40.13
2022-09-14T20:26:42.642Z,39.40
2022-09-14T20:29:09.229Z,43.33
2022-09-14T20:31:36.928Z,41.73
2022-09-14T20:34:04.373Z,42.07
2022-09-14T20:36:30.961Z,43.57
2022-09-14T20:38:59.121Z,46.60
2022-09-14T20:41:29.988Z,45.30
2022-09-14T20:43:56.845Z,42.30
2022-09-14T20:46:37.342Z,42.73
2022-09-14T20:49:04.637Z,47.97
2022-09-14T20:51:31.377Z,47.30
2022-09-14T20:54:02.047Z,45.47
2022-09-14T20:56:30.027Z,44.93
2022-09-14T20:58:57.970Z,46.73
2022-09-14T21:01:25.652Z,47.47
2022-09-14T21:03:52.681Z,45.60
2022-09-14T21:06:20.875Z,45.93
2022-09-14T21:08:47.967Z,45.87
2022-09-14T21:11:16.123Z,45.80
2022-09-14T21:13:43.180Z,49.03
2022-09-14T21:16:11.218Z,53.33
2022-09-14T21:18:37.813Z,49.50
2022-09-14T21:21:05.525Z,52.63
2022-09-14T21:23:32.073Z,49.90
2022-09-14T21:25:58.693Z,52.40
2022-09-14T21:28:25.394Z,53.27
2022-09-14T21:30:52.015Z,50.20
2022-09-14T21:33:18.588Z,45.87
2022-09-14T21:35:45.167Z,44.77
2022-09-14T21:38:11.696Z,46.30
2022-09-14T21:40:43.218Z,45.87
2022-09-14T21:43:09.768Z,46.07
2022-09-14T21:45:36.389Z,51.30
2022-09-14T21:48:02.998Z,52.30
2022-09-14T21:50:29.510Z,53.17
2022-09-14T21:52:56.058Z,46.73
2022-09-14T21:55:22.598Z,47.90
2022-09-14T21:57:50.448Z,46.90
2022-09-14T22:00:16.999Z,50.03
2022-09-14T22:02:43.647Z,48.53
2022-09-14T22:05:10.318Z,49.10
2022-09-14T22:07:36.862Z,49.83
2022-09-14T22:10:03.691Z,48.17
2022-09-14T22:12:30.947Z,46.80
2022-09-14T22:14:57.499Z,49.53
2022-09-14T22:17:24.052Z,49.90
2022-09-14T22:19:52.510Z,42.33
2022-09-14T22:22:19.022Z,42.20
2022-09-14T22:24:45.670Z,38.37
2022-09-14T22:27:12.354Z,38.43
2022-09-14T22:29:40.648Z,39.77
2022-09-14T22:32:08.150Z,37.03
2022-09-14T22:34:35.147Z,39.10
2022-09-14T22:37:02.134Z,40.40
2022-09-14T22:39:29.567Z,38.17
2022-09-14T22:41:56.064Z,37.67
2022-09-14T22:44:22.577Z,37.80
2022-09-14T22:46:49.100Z,38.60
2022-09-14T22:49:16.442Z,35.93
2022-09-14T22:51:43.017Z,37.40
2022-09-14T22:54:09.535Z,34.40
2022-09-14T22:56:37.079Z,35.53
2022-09-14T22:59:08.048Z,34.47
2022-09-14T23:01:35.994Z,34.60
2022-09-14T23:04:07.339Z,31.77
2022-09-14T23:06:44.490Z,33.07
2022-09-14T23:09:12.085Z,31.80
2022-09-14T23:11:38.631Z,34.97
2022-09-14T23:14:06.263Z,33.03
2022-09-14T23:16:32.868Z,33.83
2022-09-14T23:19:00.655Z,34.80
2022-09-14T23:21:28.520Z,35.30
2022-09-14T23:23:56.452Z,33.37
2022-09-14T23:26:23.687Z,36.00
2022-09-14T23:28:51.164Z,32.20
2022-09-14T23:31:17.854Z,31.80
2022-09-14T23:33:44.400Z,36.27
2022-09-14T23:36:10.922Z,37.77
2022-09-14T23:38:37.424Z,36.37
2022-09-14T23:41:04.089Z,38.23
2022-09-14T23:43:30.604Z,36.93
2022-09-14T23:45:57.196Z,41.90
2022-09-14T23:48:23.712Z,37.57
2022-09-14T23:50:57.208Z,38.23
2022-09-14T23:53:23.794Z,38.60
2022-09-14T23:55:50.332Z,40.23
2022-09-14T23:58:16.883Z,40.20
